Time;durP1;ratioP1;P1;durP2;ratioP2;P2;SDS_P1;SDS_P2;PMS_P1;PMS_P2;Temp;Humidity;BMP_temperature;BMP_pressure;BME280_temperature;BME280_humidity;BME280_pressure;Samples;Min_cycle;Max_cycle;Signal;HPM_P1;HPM_P2
2022/03/27 00:00:54;;;;;;;;;;;;;;;8.63;100.00;100888.16;5073680;28;19932;-78
2022/03/27 00:03:40;;;;;;;;;;;;;;;8.71;100.00;100890.72;5102419;28;20065;-78
2022/03/27 00:06:25;;;;;;;;;;;;;;;8.70;100.00;100883.53;5059675;28;19932;-78
2022/03/27 00:09:11;;;;;;;;;;;;;;;8.64;100.00;100878.63;5120081;27;19935;-78
2022/03/27 00:11:57;;;;;;;;;;;;;;;8.69;100.00;100879.13;5094619;28;19935;-77
2022/03/27 00:14:42;;;;;;;;;;;;;;;8.78;100.00;100879.69;5078733;28;19958;-77
2022/03/27 00:17:32;;;;;;;;;;;;;;;8.88;100.00;100879.13;5053092;28;19931;-78
2022/03/27 00:20:17;;;;;;;;;;;;;;;8.91;100.00;100878.38;5052971;28;19932;-78
2022/03/27 00:23:03;;;;;;;;;;;;;;;8.89;100.00;100871.56;5053596;28;19951;-78
2022/03/27 00:25:50;;;;;;;;;;;;;;;8.98;100.00;100884.09;5054240;28;19931;-78
2022/03/27 00:28:36;;;;;;;;;;;;;;;8.93;100.00;100881.63;5053905;28;19936;-78
2022/03/27 00:31:21;;;;;;;;;;;;;;;8.94;100.00;100876.84;5052857;28;19936;-78
2022/03/27 00:34:07;;;;;;;;;;;;;;;8.94;100.00;100874.84;5054190;28;19932;-78
2022/03/27 00:36:53;;;;;;;;;;;;;;;8.83;100.00;100868.25;5053592;28;19932;-78
2022/03/27 00:39:39;;;;;;;;;;;;;;;8.78;100.00;100874.13;5052944;28;20406;-78
2022/03/27 00:42:24;;;;;;;;;;;;;;;8.74;100.00;100878.03;5052441;28;20043;-77
2022/03/27 00:45:10;;;;;;;;;;;;;;;8.72;100.00;100878.38;5053819;28;19977;-78
2022/03/27 00:47:56;;;;;;;;;;;;;;;8.76;100.00;100870.94;5038962;28;19932;-78
2022/03/27 00:50:42;;;;;;;;;;;;;;;8.69;100.00;100865.19;5081135;28;20438;-78
2022/03/27 00:53:27;;;;;;;;;;;;;;;8.68;100.00;100871.13;5038531;28;20371;-78
2022/03/27 00:56:13;;;;;;;;;;;;;;;8.85;100.00;100867.91;5053507;28;19982;-78
2022/03/27 00:58:59;;;;;;;;;;;;;;;8.91;100.00;100869.22;5052620;28;19947;-78
2022/03/27 01:01:45;;;;;;;;;;;;;;;8.80;100.00;100860.63;5053795;28;20269;-78
2022/03/27 01:04:31;;;;;;;;;;;;;;;8.92;100.00;100868.06;5052623;28;19932;-78
2022/03/27 01:07:20;;;;;;;;;;;;;;;8.93;100.00;100864.91;5052731;28;19931;-78
2022/03/27 01:10:05;;;;;;;;;;;;;;;8.83;100.00;100862.69;5052141;28;19973;-78
2022/03/27 01:12:51;;;;;;;;;;;;;;;8.87;100.00;100869.16;5081026;28;19931;-78
2022/03/27 01:15:53;;;;;;;;;;;;;;;9.03;100.00;100864.28;5053490;28;20391;-78
2022/03/27 01:18:39;;;;;;;;;;;;;;;9.15;100.00;100858.53;5053634;28;19946;-78
2022/03/27 01:21:25;;;;;;;;;;;;;;;9.08;100.00;100854.81;5053582;28;20276;-78
2022/03/27 01:24:11;;;;;;;;;;;;;;;9.02;100.00;100856.28;5052795;28;19932;-78
2022/03/27 01:26:57;;;;;;;;;;;;;;;8.99;100.00;100860.63;5051140;28;19932;-78
2022/03/27 01:29:43;;;;;;;;;;;;;;;8.76;100.00;100848.63;5053671;28;19940;-78
2022/03/27 01:32:28;;;;;;;;;;;;;;;8.48;100.00;100859.19;5053335;28;19931;-78
2022/03/27 01:35:14;;;;;;;;;;;;;;;8.49;100.00;100849.69;5054950;28;19978;-78
2022/03/27 01:38:02;;;;;;;;;;;;;;;8.49;100.00;100860.81;5054753;28;19929;-78
2022/03/27 01:40:48;;;;;;;;;;;;;;;8.43;100.00;100851.16;5054513;28;20062;-78
2022/03/27 01:43:33;;;;;;;;;;;;;;;8.37;100.00;100852.59;5040564;28;20619;-78
2022/03/27 01:46:19;;;;;;;;;;;;;;;8.22;100.00;100861.00;5055260;28;20402;-78
2022/03/27 01:49:07;;;;;;;;;;;;;;;8.14;100.00;100843.31;5055174;28;20074;-79
2022/03/27 01:51:53;;;;;;;;;;;;;;;8.08;100.00;100844.78;5054785;28;20034;-78
2022/03/27 01:54:38;;;;;;;;;;;;;;;7.91;100.00;100847.97;5040561;28;19948;-78
2022/03/27 01:57:24;;;;;;;;;;;;;;;7.91;100.00;100845.19;5040607;28;19967;-78
2022/03/27 02:00:11;;;;;;;;;;;;;;;7.47;100.00;100840.94;5069067;28;20392;-78
2022/03/27 02:02:59;;;;;;;;;;;;;;;7.54;100.00;100834.75;5054839;28;19932;-78
2022/03/27 02:05:45;;;;;;;;;;;;;;;7.50;100.00;100848.56;5040819;28;19974;-78
2022/03/27 02:08:32;;;;;;;;;;;;;;;7.36;100.00;100837.13;5049769;28;19932;-79
2022/03/27 02:11:18;;;;;;;;;;;;;;;7.36;100.00;100835.13;5037129;28;20064;-79
2022/03/27 02:13:45;;;;;;;;;;;;;;;7.41;100.00;100841.59;5036038;28;19925;-78
2022/03/27 02:16:13;;;;;;;;;;;;;;;7.40;100.00;100835.22;5036647;28;19932;-78
2022/03/27 02:18:42;;;;;;;;;;;;;;;7.36;100.00;100834.34;5068596;28;19925;-78
2022/03/27 02:21:09;;;;;;;;;;;;;;;7.40;100.00;100835.22;5036545;28;20335;-78
2022/03/27 02:23:37;;;;;;;;;;;;;;;7.01;100.00;100833.44;5036357;28;19957;-79
2022/03/27 02:26:05;;;;;;;;;;;;;;;7.05;100.00;100839.88;5035416;28;20335;-78
2022/03/27 02:28:33;;;;;;;;;;;;;;;7.22;100.00;100833.97;5051817;28;20261;-78
2022/03/27 02:31:01;;;;;;;;;;;;;;;6.67;100.00;100840.44;5036557;28;19925;-78
2022/03/27 02:33:29;;;;;;;;;;;;;;;6.89;100.00;100841.84;5035033;28;20352;-78
2022/03/27 02:35:56;;;;;;;;;;;;;;;6.78;100.00;100826.84;5018962;28;20374;-78
2022/03/27 02:38:23;;;;;;;;;;;;;;;6.77;100.00;100828.81;5034990;28;20384;-78
2022/03/27 02:40:52;;;;;;;;;;;;;;;6.90;100.00;100829.56;5035626;28;19929;-78
2022/03/27 02:43:19;;;;;;;;;;;;;;;6.45;100.00;100824.34;5035427;28;20502;-78
2022/03/27 02:45:48;;;;;;;;;;;;;;;6.65;100.00;100828.09;5071355;28;20474;-78
2022/03/27 02:48:15;;;;;;;;;;;;;;;6.71;100.00;100827.44;5058110;28;19928;-78
2022/03/27 02:50:43;;;;;;;;;;;;;;;6.68;100.00;100827.38;5073980;28;20477;-79
2022/03/27 02:53:12;;;;;;;;;;;;;;;6.61;100.00;100818.84;5088727;28;19924;-78
2022/03/27 02:55:39;;;;;;;;;;;;;;;6.55;100.00;100825.81;5096128;28;20010;-78
2022/03/27 02:58:07;;;;;;;;;;;;;;;6.61;100.00;100819.66;5111745;28;19989;-78
2022/03/27 03:00:35;;;;;;;;;;;;;;;6.61;100.00;100818.84;5061342;28;19924;-78
2022/03/27 03:03:02;;;;;;;;;;;;;;;6.61;100.00;100821.59;5094814;28;19928;-78
2022/03/27 03:05:29;;;;;;;;;;;;;;;6.58;100.00;100820.34;5094806;28;20341;-78
2022/03/27 03:07:58;;;;;;;;;;;;;;;6.52;100.00;100815.41;5094224;28;20369;-78
2022/03/27 03:10:25;;;;;;;;;;;;;;;6.34;100.00;100811.31;5094748;28;20076;-78
2022/03/27 03:12:56;;;;;;;;;;;;;;;6.21;100.00;100812.53;5094635;28;19924;-78
2022/03/27 03:15:23;;;;;;;;;;;;;;;6.00;100.00;100812.72;5128427;27;19924;-78
2022/03/27 03:17:50;;;;;;;;;;;;;;;6.09;100.00;100812.59;5095563;28;20283;-78
2022/03/27 03:20:19;;;;;;;;;;;;;;;6.13;100.00;100814.31;5094341;28;19931;-78
2022/03/27 03:22:46;;;;;;;;;;;;;;;6.17;100.00;100819.94;5094340;28;19924;-78
2022/03/27 03:25:14;;;;;;;;;;;;;;;6.09;100.00;100815.38;5095415;28;19924;-78
2022/03/27 03:27:41;;;;;;;;;;;;;;;6.08;100.00;100816.50;5095292;28;20018;-78
2022/03/27 03:30:10;;;;;;;;;;;;;;;6.00;100.00;100815.47;5095399;28;19932;-78
2022/03/27 03:32:37;;;;;;;;;;;;;;;5.95;100.00;100812.97;5095342;28;19977;-78
2022/03/27 03:35:05;;;;;;;;;;;;;;;6.06;100.00;100810.50;5093822;28;19928;-78
2022/03/27 03:37:32;;;;;;;;;;;;;;;6.03;100.00;100808.44;5093904;28;20019;-78
2022/03/27 03:39:59;;;;;;;;;;;;;;;6.04;100.00;100818.38;5094068;28;19924;-79
2022/03/27 03:42:27;;;;;;;;;;;;;;;6.05;100.00;100822.75;5093923;28;20019;-78
2022/03/27 03:44:55;;;;;;;;;;;;;;;5.96;100.00;100819.31;5094428;28;19993;-78
2022/03/27 03:47:22;;;;;;;;;;;;;;;5.80;100.00;100818.41;5077086;28;20383;-78
2022/03/27 03:49:49;;;;;;;;;;;;;;;5.88;100.00;100829.38;5127695;27;19924;-78
2022/03/27 03:52:19;;;;;;;;;;;;;;;5.67;100.00;100816.78;5094579;28;19924;-78
2022/03/27 03:54:47;;;;;;;;;;;;;;;5.81;100.00;100811.69;5093442;28;19924;-78
2022/03/27 03:57:15;;;;;;;;;;;;;;;5.80;100.00;100815.63;5093074;28;19924;-78
2022/03/27 03:59:42;;;;;;;;;;;;;;;5.82;100.00;100807.78;5093499;28;19924;-78
2022/03/27 04:02:10;;;;;;;;;;;;;;;5.58;100.00;100806.66;5094645;28;19975;-78
2022/03/27 04:04:37;;;;;;;;;;;;;;;5.39;100.00;100803.66;5094502;28;20381;-78
2022/03/27 04:07:04;;;;;;;;;;;;;;;5.18;100.00;100811.28;5094485;28;19936;-78
2022/03/27 04:09:31;;;;;;;;;;;;;;;4.94;100.00;100804.91;5094629;28;20363;-78
2022/03/27 04:11:58;;;;;;;;;;;;;;;5.11;100.00;100802.75;5088946;28;19930;-78
2022/03/27 04:14:36;;;;;;;;;;;;;;;5.31;100.00;100804.59;5075002;28;19946;-78
2022/03/27 04:17:03;;;;;;;;;;;;;;;5.23;100.00;100801.91;5074140;28;19930;-78
2022/03/27 04:19:30;;;;;;;;;;;;;;;5.31;100.00;100801.00;5074787;28;19933;-78
2022/03/27 04:21:57;;;;;;;;;;;;;;;5.40;100.00;100799.75;5052936;28;19929;-78
2022/03/27 04:24:25;;;;;;;;;;;;;;;5.43;100.00;100801.81;5053097;28;19970;-78
2022/03/27 04:26:52;;;;;;;;;;;;;;;5.39;100.00;100789.78;5091166;28;20014;-78
2022/03/27 04:29:19;;;;;;;;;;;;;;;5.23;100.00;100794.44;5094324;28;19970;-78
2022/03/27 04:31:47;;;;;;;;;;;;;;;5.31;100.00;100778.84;5094286;28;19924;-78
2022/03/27 04:34:15;;;;;;;;;;;;;;;5.41;100.00;100793.03;5093788;28;19924;-78
2022/03/27 04:36:42;;;;;;;;;;;;;;;5.38;100.00;100788.19;5076148;28;19928;-78
2022/03/27 04:39:09;;;;;;;;;;;;;;;5.30;100.00;100783.56;5092847;28;19931;-78
2022/03/27 04:41:37;;;;;;;;;;;;;;;5.28;100.00;100783.13;5092912;28;19969;-78
2022/03/27 04:44:04;;;;;;;;;;;;;;;5.23;100.00;100780.56;5092949;28;19928;-78
2022/03/27 04:46:31;;;;;;;;;;;;;;;5.28;100.00;100776.75;5075996;28;19973;-78
2022/03/27 04:48:58;;;;;;;;;;;;;;;5.31;100.00;100771.34;5069868;28;19924;-78
2022/03/27 04:51:25;;;;;;;;;;;;;;;5.30;100.00;100772.47;5072399;28;20268;-78
2022/03/27 04:53:52;;;;;;;;;;;;;;;5.15;100.00;100772.38;5074181;28;20015;-78
2022/03/27 04:56:20;;;;;;;;;;;;;;;5.07;100.00;100776.84;5093828;28;19931;-78
2022/03/27 04:58:47;;;;;;;;;;;;;;;5.10;100.00;100773.38;5093678;28;19928;-78
2022/03/27 05:01:14;;;;;;;;;;;;;;;5.15;100.00;100778.72;5093761;28;19971;-78
2022/03/27 05:03:41;;;;;;;;;;;;;;;5.21;100.00;100776.53;5092246;28;19973;-78
2022/03/27 05:06:10;;;;;;;;;;;;;;;5.25;100.00;100772.72;5092567;28;19970;-78
2022/03/27 05:08:37;;;;;;;;;;;;;;;5.29;100.00;100781.94;5092916;28;19928;-78
2022/03/27 05:11:06;;;;;;;;;;;;;;;5.31;100.00;100776.06;5097945;28;19925;-78
2022/03/27 05:13:33;;;;;;;;;;;;;;;5.29;100.00;100779.19;5097965;28;19925;-78
2022/03/27 05:16:00;;;;;;;;;;;;;;;5.20;100.00;100778.50;5097784;28;20362;-78
2022/03/27 05:18:27;;;;;;;;;;;;;;;5.23;100.00;100782.53;5079543;28;19934;-78
2022/03/27 05:20:55;;;;;;;;;;;;;;;5.13;100.00;100781.03;5067554;28;20350;-78
2022/03/27 05:23:22;;;;;;;;;;;;;;;4.98;100.00;100778.13;5097673;28;19924;-78
2022/03/27 05:25:50;;;;;;;;;;;;;;;4.81;100.00;100779.16;5096670;28;19931;-78
2022/03/27 05:28:19;;;;;;;;;;;;;;;4.89;100.00;100775.47;5077979;28;19924;-78
2022/03/27 05:30:46;;;;;;;;;;;;;;;5.04;100.00;100776.75;5075957;28;19982;-78
2022/03/27 05:33:14;;;;;;;;;;;;;;;5.12;100.00;100773.03;5075837;28;20119;-78
2022/03/27 05:35:41;;;;;;;;;;;;;;;5.12;100.00;100782.19;5076096;28;20073;-78
2022/03/27 05:38:08;;;;;;;;;;;;;;;4.92;100.00;100777.53;5075891;28;20018;-78
2022/03/27 05:40:35;;;;;;;;;;;;;;;4.71;100.00;100774.06;5077192;28;20023;-78
2022/03/27 05:43:02;;;;;;;;;;;;;;;4.66;100.00;100779.84;5081934;28;19924;-78
2022/03/27 05:45:30;;;;;;;;;;;;;;;4.87;100.00;100783.31;5097123;28;19931;-78
2022/03/27 05:47:57;;;;;;;;;;;;;;;4.91;100.00;100773.16;5097060;28;19924;-78
2022/03/27 05:50:25;;;;;;;;;;;;;;;4.53;100.00;100780.94;5076961;28;19933;-78
2022/03/27 05:52:52;;;;;;;;;;;;;;;4.80;100.00;100783.06;5056638;28;19924;-78
2022/03/27 05:55:21;;;;;;;;;;;;;;;4.55;100.00;100775.88;5062991;28;20322;-78
2022/03/27 05:57:48;;;;;;;;;;;;;;;4.88;100.00;100784.13;5096840;28;19928;-78
2022/03/27 06:00:19;;;;;;;;;;;;;;;4.99;100.00;100788.88;5096639;28;19924;-78
2022/03/27 06:02:48;;;;;;;;;;;;;;;4.99;100.00;100783.34;5095869;28;19924;-78
2022/03/27 06:05:17;;;;;;;;;;;;;;;4.98;100.00;100794.75;5078857;28;19924;-78
2022/03/27 06:07:46;;;;;;;;;;;;;;;4.92;100.00;100793.38;5089551;28;20364;-78
2022/03/27 06:10:14;;;;;;;;;;;;;;;4.95;100.00;100795.44;5075301;28;20014;-78
2022/03/27 06:12:43;;;;;;;;;;;;;;;4.65;100.00;100792.03;5074886;28;19928;-79
2022/03/27 06:15:10;;;;;;;;;;;;;;;4.92;100.00;100791.38;5058468;28;20393;-78
2022/03/27 06:17:43;;;;;;;;;;;;;;;5.08;100.00;100794.31;5075722;28;19926;-77
2022/03/27 06:20:12;;;;;;;;;;;;;;;4.77;100.00;100794.03;5076022;28;19931;-77
2022/03/27 06:22:39;;;;;;;;;;;;;;;5.19;100.00;100798.25;5075933;28;19931;-88
2022/03/27 06:25:08;;;;;;;;;;;;;;;5.38;100.00;100796.50;5075282;28;19925;-78
2022/03/27 06:27:36;;;;;;;;;;;;;;;5.51;100.00;100792.53;5075059;28;20287;-78
2022/03/27 06:30:07;;;;;;;;;;;;;;;5.51;100.00;100798.09;5074673;28;20338;-78
2022/03/27 06:32:36;;;;;;;;;;;;;;;5.30;100.00;100797.41;5074886;28;19928;-78
2022/03/27 06:35:04;;;;;;;;;;;;;;;5.38;100.00;100799.28;5075955;28;19931;-78
2022/03/27 06:37:33;;;;;;;;;;;;;;;5.54;100.00;100805.72;5074807;28;19932;-78
2022/03/27 06:40:00;;;;;;;;;;;;;;;5.64;100.00;100804.44;5071525;28;19925;-78
2022/03/27 06:42:27;;;;;;;;;;;;;;;5.73;100.00;100799.56;5083616;28;20340;-79
2022/03/27 06:44:55;;;;;;;;;;;;;;;5.76;100.00;100798.06;5095872;28;19954;-77
2022/03/27 06:47:23;;;;;;;;;;;;;;;5.32;100.00;100789.56;5095862;28;20337;-75
2022/03/27 06:49:50;;;;;;;;;;;;;;;5.71;100.00;100792.75;5077715;28;19934;-75
2022/03/27 06:52:18;;;;;;;;;;;;;;;6.65;100.00;100789.97;5095783;28;19947;-75
2022/03/27 06:54:45;;;;;;;;;;;;;;;7.74;100.00;100789.13;5086333;28;19943;-76
2022/03/27 06:57:12;;;;;;;;;;;;;;;9.07;100.00;100780.69;5066862;28;19931;-76
2022/03/27 07:05:14;;;;;;;;;;;;;;;12.10;100.00;100755.72;5094682;28;20370;-76
2022/03/27 07:07:42;;;;;;;;;;;;;;;12.72;100.00;100742.31;5073270;28;19928;-76
2022/03/27 07:10:10;;;;;;;;;;;;;;;13.29;100.00;100740.34;5070469;28;19931;-76
2022/03/27 07:12:37;;;;;;;;;;;;;;;13.60;100.00;100747.97;5067765;28;19925;-76
2022/03/27 07:15:05;;;;;;;;;;;;;;;14.00;100.00;100742.63;5075190;28;20375;-76
2022/03/27 07:17:48;;;;;;;;;;;;;;;14.48;100.00;100740.03;5077412;28;19924;-76
2022/03/27 07:20:20;;;;;;;;;;;;;;;14.53;100.00;100734.00;5094227;28;19928;-77
2022/03/27 07:22:47;;;;;;;;;;;;;;;14.27;100.00;100737.34;5095378;28;19928;-75
2022/03/27 07:25:14;;;;;;;;;;;;;;;14.29;100.00;100726.50;5060751;28;19956;-76
2022/03/27 07:27:42;;;;;;;;;;;;;;;14.54;100.00;100727.16;5093846;28;19924;-76
2022/03/27 07:30:09;;;;;;;;;;;;;;;14.22;100.00;100732.13;5095285;28;20015;-76
2022/03/27 07:32:37;;;;;;;;;;;;;;;13.55;100.00;100723.09;5092796;28;19924;-76
2022/03/27 07:35:05;;;;;;;;;;;;;;;13.30;100.00;100730.75;5093940;28;19924;-75
2022/03/27 07:37:34;;;;;;;;;;;;;;;13.23;100.00;100730.75;5076841;28;20359;-76
2022/03/27 07:40:03;;;;;;;;;;;;;;;12.71;100.00;100737.88;5076970;28;19924;-77
2022/03/27 07:42:31;;;;;;;;;;;;;;;13.01;100.00;100740.38;5093456;28;19931;-77
2022/03/27 07:44:58;;;;;;;;;;;;;;;13.45;100.00;100743.56;5089568;28;19924;-76
2022/03/27 07:47:27;;;;;;;;;;;;;;;14.08;100.00;100740.59;5073908;28;19924;-77
2022/03/27 07:49:54;;;;;;;;;;;;;;;14.47;100.00;100732.81;5086187;28;20014;-78
2022/03/27 07:52:22;;;;;;;;;;;;;;;14.42;100.00;100744.50;5093267;28;20408;-78
2022/03/27 07:54:50;;;;;;;;;;;;;;;13.66;100.00;100741.50;5107094;27;20379;-78
2022/03/27 07:57:17;;;;;;;;;;;;;;;14.62;100.00;100748.41;5072778;28;19928;-78
2022/03/27 07:59:45;;;;;;;;;;;;;;;15.56;100.00;100729.19;5067849;28;19938;-80
2022/03/27 08:02:14;;;;;;;;;;;;;;;15.78;100.00;100728.56;5068277;28;19928;-80
2022/03/27 08:04:45;;;;;;;;;;;;;;;15.66;100.00;100726.28;5054447;28;20311;-77
2022/03/27 08:07:12;;;;;;;;;;;;;;;15.45;100.00;100726.47;5050048;28;19924;-82
2022/03/27 08:09:39;;;;;;;;;;;;;;;15.11;100.00;100722.75;5081652;28;19932;-77
2022/03/27 08:12:08;;;;;;;;;;;;;;;15.38;100.00;100725.75;5068925;28;20371;-78
2022/03/27 08:14:36;;;;;;;;;;;;;;;15.59;100.00;100729.16;5071044;28;20024;-77
2022/03/27 08:17:04;;;;;;;;;;;;;;;15.77;100.00;100723.34;5103215;27;20368;-77
2022/03/27 08:19:31;;;;;;;;;;;;;;;15.56;100.00;100727.19;5075885;28;19951;-76
2022/03/27 08:22:01;;;;;;;;;;;;;;;15.38;100.00;100720.94;5072971;28;19931;-76
2022/03/27 08:24:28;;;;;;;;;;;;;;;16.08;100.00;100720.16;5074081;28;19924;-76
2022/03/27 08:26:55;;;;;;;;;;;;;;;16.33;100.00;100724.72;5056061;28;19924;-75
2022/03/27 08:29:27;;;;;;;;;;;;;;;16.22;100.00;100719.97;5072906;28;19963;-77
2022/03/27 08:31:55;;;;;;;;;;;;;;;16.10;100.00;100716.91;5073367;28;19925;-77
2022/03/27 08:34:25;;;;;;;;;;;;;;;16.19;100.00;100715.19;5073970;28;19924;-77
2022/03/27 08:36:52;;;;;;;;;;;;;;;16.14;100.00;100715.69;5073994;28;20360;-77
2022/03/27 08:39:20;;;;;;;;;;;;;;;15.61;100.00;100720.31;5091337;28;20348;-75
2022/03/27 08:41:47;;;;;;;;;;;;;;;15.34;100.00;100717.28;5076035;28;19928;-77
2022/03/27 08:44:18;;;;;;;;;;;;;;;15.63;100.00;100720.69;5068459;28;20288;-77
2022/03/27 08:46:46;;;;;;;;;;;;;;;15.59;100.00;100720.72;5053646;28;20400;-77
2022/03/27 08:49:13;;;;;;;;;;;;;;;14.87;100.00;100720.94;5051544;28;20368;-77
2022/03/27 08:52:04;;;;;;;;;;;;;;;14.93;100.00;100726.91;5052817;28;19931;-77
2022/03/27 08:54:57;;;;;;;;;;;;;;;14.34;100.00;100734.50;5051762;28;20311;-77
2022/03/27 08:57:37;;;;;;;;;;;;;;;14.64;100.00;100720.69;5049835;28;19932;-77
2022/03/27 09:00:05;;;;;;;;;;;;;;;13.91;100.00;100727.41;5052810;28;19925;-77
2022/03/27 09:02:32;;;;;;;;;;;;;;;14.16;100.00;100733.75;5052654;28;20103;-77
2022/03/27 09:04:59;;;;;;;;;;;;;;;14.47;100.00;100738.44;5084931;28;20023;-77
2022/03/27 09:07:29;;;;;;;;;;;;;;;14.33;100.00;100732.88;5052773;28;19931;-77
2022/03/27 09:10:00;;;;;;;;;;;;;;;14.01;100.00;100735.03;5052403;28;19975;-77
2022/03/27 09:12:27;;;;;;;;;;;;;;;13.73;100.00;100749.94;5051155;28;19939;-77
2022/03/27 09:14:54;;;;;;;;;;;;;;;13.46;100.00;100747.97;5051376;28;19932;-77
2022/03/27 09:17:21;;;;;;;;;;;;;;;13.42;100.00;100745.16;5052983;28;19932;-77
2022/03/27 09:19:50;;;;;;;;;;;;;;;13.51;100.00;100741.97;5052218;28;19932;-77
2022/03/27 09:22:18;;;;;;;;;;;;;;;13.44;100.00;100742.75;5051126;28;19925;-77
2022/03/27 09:24:47;;;;;;;;;;;;;;;13.20;100.00;100742.78;5033939;28;20380;-77
2022/03/27 09:27:15;;;;;;;;;;;;;;;13.58;100.00;100741.94;5084794;28;19929;-77
2022/03/27 09:30:03;;;;;;;;;;;;;;;13.79;100.00;100741.91;5052574;28;19925;-77
2022/03/27 09:32:31;;;;;;;;;;;;;;;13.86;100.00;100739.88;5052375;28;19929;-77
2022/03/27 09:34:59;;;;;;;;;;;;;;;13.58;100.00;100744.75;5050999;28;19932;-76
2022/03/27 09:37:35;;;;;;;;;;;;;;;13.68;100.00;100741.09;5052316;28;19947;-75
2022/03/27 09:40:03;;;;;;;;;;;;;;;13.85;100.00;100740.28;5051138;28;20014;-76
2022/03/27 09:42:30;;;;;;;;;;;;;;;14.11;100.00;100737.78;5052136;28;19925;-78
2022/03/27 09:45:13;;;;;;;;;;;;;;;14.29;100.00;100738.56;5050933;28;20295;-76
2022/03/27 09:47:43;;;;;;;;;;;;;;;13.96;100.00;100741.06;5052289;28;20281;-76
2022/03/27 09:50:28;;;;;;;;;;;;;;;13.92;100.00;100734.63;5084108;28;19925;-77
2022/03/27 09:53:14;;;;;;;;;;;;;;;13.72;100.00;100737.09;5050410;28;19960;-76
2022/03/27 09:55:42;;;;;;;;;;;;;;;13.93;100.00;100731.41;5051682;28;20448;-76
2022/03/27 09:58:09;;;;;;;;;;;;;;;14.09;100.00;100725.34;5054768;28;19936;-76
2022/03/27 10:00:38;;;;;;;;;;;;;;;14.38;100.00;100724.03;5054385;28;19925;-76
2022/03/27 10:03:10;;;;;;;;;;;;;;;14.63;100.00;100721.09;5055837;28;19925;-76
2022/03/27 10:05:40;;;;;;;;;;;;;;;15.02;100.00;100713.97;5054525;28;19948;-76
2022/03/27 10:08:08;;;;;;;;;;;;;;;14.73;100.00;100711.75;5054029;28;19929;-76
2022/03/27 10:10:35;;;;;;;;;;;;;;;14.28;100.00;100708.03;5055404;28;20011;-76
2022/03/27 10:13:06;;;;;;;;;;;;;;;14.33;100.00;100704.75;5055388;28;19972;-76
2022/03/27 10:15:34;;;;;;;;;;;;;;;14.07;100.00;100706.06;5055322;28;19925;-76
2022/03/27 10:18:09;;;;;;;;;;;;;;;14.13;100.00;100706.47;5055381;28;20015;-76
2022/03/27 10:20:37;;;;;;;;;;;;;;;14.30;100.00;100697.97;5055448;28;20437;-76
2022/03/27 10:23:09;;;;;;;;;;;;;;;14.74;100.00;100690.88;5055230;28;20399;-76
2022/03/27 10:26:02;;;;;;;;;;;;;;;14.51;100.00;100682.97;5055345;28;19932;-76
2022/03/27 10:28:29;;;;;;;;;;;;;;;14.79;100.00;100682.78;5036556;28;19925;-76
2022/03/27 10:30:59;;;;;;;;;;;;;;;14.91;100.00;100685.09;5055225;28;19925;-76
2022/03/27 10:33:28;;;;;;;;;;;;;;;14.56;100.00;100678.91;5054086;28;19932;-76
2022/03/27 10:35:59;;;;;;;;;;;;;;;14.59;100.00;100687.34;5053623;28;19924;-76
2022/03/27 10:38:26;;;;;;;;;;;;;;;14.93;100.00;100693.13;5055071;28;19925;-76
2022/03/27 10:40:54;;;;;;;;;;;;;;;14.83;100.00;100686.38;5054047;28;19924;-76
2022/03/27 10:43:28;;;;;;;;;;;;;;;14.71;100.00;100678.41;5055065;28;19967;-76
2022/03/27 10:46:16;;;;;;;;;;;;;;;14.96;100.00;100664.97;5054746;28;19925;-76
2022/03/27 10:48:44;;;;;;;;;;;;;;;15.08;100.00;100667.28;5053739;28;20331;-76
2022/03/27 10:51:31;;;;;;;;;;;;;;;15.10;100.00;100658.41;5054728;28;19925;-76
2022/03/27 10:54:01;;;;;;;;;;;;;;;15.26;100.00;100662.28;5052813;28;20015;-76
2022/03/27 10:56:45;;;;;;;;;;;;;;;15.19;100.00;100662.31;5054937;28;19925;-76
2022/03/27 10:59:19;;;;;;;;;;;;;;;15.73;100.00;100664.22;5086928;28;19975;-76
2022/03/27 11:01:53;;;;;;;;;;;;;;;15.27;100.00;100658.22;5054601;28;19925;-76
2022/03/27 11:04:35;;;;;;;;;;;;;;;15.46;100.00;100645.59;5054528;28;19978;-77
2022/03/27 11:07:21;;;;;;;;;;;;;;;15.57;100.00;100652.72;5054607;28;20379;-77
2022/03/27 11:09:49;;;;;;;;;;;;;;;15.23;100.00;100640.59;5054520;28;19932;-76
2022/03/27 11:12:22;;;;;;;;;;;;;;;15.28;100.00;100647.78;5052734;28;19925;-76
2022/03/27 11:14:52;;;;;;;;;;;;;;;15.56;100.00;100642.66;5071224;28;19928;-76
2022/03/27 11:17:38;;;;;;;;;;;;;;;15.71;100.00;100632.81;5074542;28;19967;-77
2022/03/27 11:20:07;;;;;;;;;;;;;;;15.89;100.00;100627.78;5071741;28;20019;-76
2022/03/27 11:22:43;;;;;;;;;;;;;;;15.95;100.00;100628.91;5074027;28;19924;-77
2022/03/27 11:25:29;;;;;;;;;;;;;;;16.07;100.00;100617.06;5072953;28;19977;-76
2022/03/27 11:27:58;;;;;;;;;;;;;;;15.84;100.00;100631.03;5073157;28;19925;-77
2022/03/27 11:30:25;;;;;;;;;;;;;;;15.49;100.00;100620.22;5073008;28;19951;-76
2022/03/27 11:33:11;;;;;;;;;;;;;;;15.71;100.00;100624.38;5074079;28;19924;-76
2022/03/27 11:35:39;;;;;;;;;;;;;;;15.78;100.00;100627.09;5073809;28;20497;-76
2022/03/27 11:38:22;;;;;;;;;;;;;;;15.59;100.00;100618.47;5074186;28;20034;-76
2022/03/27 11:40:50;;;;;;;;;;;;;;;16.04;100.00;100614.28;5072593;28;19978;-77
2022/03/27 11:43:26;;;;;;;;;;;;;;;16.27;100.00;100607.94;5073652;28;20421;-76
2022/03/27 11:45:58;;;;;;;;;;;;;;;16.24;100.00;100616.00;5073876;28;20478;-76
2022/03/27 11:48:25;;;;;;;;;;;;;;;15.82;100.00;100607.34;5073647;28;19925;-76
2022/03/27 11:50:56;;;;;;;;;;;;;;;15.61;100.00;100601.97;5073701;28;20012;-76
2022/03/27 11:53:34;;;;;;;;;;;;;;;15.97;100.00;100601.09;5073611;28;20261;-76
2022/03/27 11:56:08;;;;;;;;;;;;;;;15.85;100.00;100593.19;5072508;28;19924;-76
2022/03/27 11:58:35;;;;;;;;;;;;;;;15.80;100.00;100593.66;5073606;28;20383;-76
2022/03/27 12:01:04;;;;;;;;;;;;;;;16.07;100.00;100599.31;5073476;28;20402;-76
2022/03/27 12:03:31;;;;;;;;;;;;;;;16.31;100.00;100586.09;5088767;28;19924;-77
2022/03/27 12:06:05;;;;;;;;;;;;;;;16.06;100.00;100595.72;5073542;28;20322;-76
2022/03/27 12:08:37;;;;;;;;;;;;;;;16.03;100.00;100585.28;5072475;28;19931;-76
2022/03/27 12:11:06;;;;;;;;;;;;;;;15.88;100.00;100591.53;5072082;28;19932;-76
2022/03/27 12:13:40;;;;;;;;;;;;;;;15.79;100.00;100594.91;5073291;28;20003;-76
2022/03/27 12:16:14;;;;;;;;;;;;;;;15.84;100.00;100593.63;5105750;28;19924;-76
2022/03/27 12:18:44;;;;;;;;;;;;;;;16.05;100.00;100591.28;5072399;28;19925;-76
2022/03/27 12:21:15;;;;;;;;;;;;;;;16.05;100.00;100580.00;5073163;28;19960;-76
2022/03/27 12:23:48;;;;;;;;;;;;;;;16.09;100.00;100577.97;5071959;28;20599;-76
2022/03/27 12:32:04;;;;;;;;;;;;;;;15.96;100.00;100574.09;5072789;28;19963;-76
2022/03/27 12:34:32;;;;;;;;;;;;;;;15.89;100.00;100571.38;5073081;28;19924;-77
2022/03/27 12:37:09;;;;;;;;;;;;;;;15.73;100.00;100584.50;5071835;28;20015;-76
2022/03/27 12:39:37;;;;;;;;;;;;;;;15.71;100.00;100581.28;5073007;28;19931;-76
2022/03/27 12:42:06;;;;;;;;;;;;;;;15.61;100.00;100571.78;5071665;28;19932;-76
2022/03/27 12:44:48;;;;;;;;;;;;;;;15.77;100.00;100569.13;5071608;28;19931;-76
2022/03/27 12:47:16;;;;;;;;;;;;;;;15.54;100.00;100566.22;5072830;28;19925;-76
2022/03/27 12:49:49;;;;;;;;;;;;;;;15.62;100.00;100567.72;5072978;28;19925;-76
2022/03/27 12:52:17;;;;;;;;;;;;;;;15.62;100.00;100556.47;5072538;28;20392;-76
2022/03/27 12:55:05;;;;;;;;;;;;;;;15.63;100.00;100557.28;5088317;28;20015;-76
2022/03/27 12:57:58;;;;;;;;;;;;;;;16.25;100.00;100561.19;5072828;28;19924;-76
2022/03/27 13:00:26;;;;;;;;;;;;;;;16.45;100.00;100546.44;5071540;28;20022;-76
2022/03/27 13:03:13;;;;;;;;;;;;;;;16.04;100.00;100538.16;5072690;28;19993;-76
2022/03/27 13:05:41;;;;;;;;;;;;;;;16.02;100.00;100551.88;5054802;28;19973;-76
2022/03/27 13:08:08;;;;;;;;;;;;;;;15.77;100.00;100546.59;5071099;28;19928;-76
2022/03/27 13:10:39;;;;;;;;;;;;;;;16.12;100.00;100545.28;5072635;28;19963;-76